Rechercher aéroport 
image banner adimage banner adimage banner ad
image banner ad

5CA0 - Dreamworks Helistop Glendale

Situé à Glendale, United States

ICAO - 5CA0, IATA -

Données fournies par Airmate  

Information générale

Coordonnées: N34°9'30" W118°17'9"
Élévation : 513 feet MSL.
Variation magnétique : 14° East
Voir autres Aéroports à California

Données opérationnelles

Special qualification required
Heure actuelle UTC:
Heure actuelle locale:
Météo à : KBUR - Bob Hope ( 8 km )
METAR: KBUR 231453Z 13003KT 10SM CLR 21/13 A2993 RMK AO2 SLP120 T02060133 53001 $
TAF: KBUR 231144Z 2312/2412 VRB03KT P6SM SKC FM232000 18010KT P6SM SKC FM240300 13006KT P6SM SKC FM240800 VRB03KT P6SM SKC
Voir NOTAMs / SUP AIP / TFR affectant cet aéroport [VIEW]
Fréquences de communication: [VIEW]

Pistes:

Coordonnées de l'aéroport

Adresse: Glendale United States

Vue satellite de 5CA0